createdAt,value
2023-02-09T00:02:39.021Z,74.07
2023-02-09T00:07:40.635Z,74.37
2023-02-09T00:13:00.603Z,74.26
2023-02-09T00:18:02.019Z,74.07
2023-02-09T00:23:03.446Z,74.16
2023-02-09T00:28:05.734Z,74.30
2023-02-09T00:33:07.184Z,74.52
2023-02-09T00:38:09.760Z,74.10
2023-02-09T00:43:11.856Z,73.76
2023-02-09T00:48:13.370Z,74.18
2023-02-09T00:53:14.863Z,74.99
2023-02-09T00:58:17.282Z,74.62
2023-02-09T01:03:18.785Z,74.91
2023-02-09T01:08:20.259Z,75.38
2023-02-09T01:13:21.716Z,75.44
2023-02-09T01:18:23.139Z,75.37
2023-02-09T01:23:24.566Z,75.09
2023-02-09T01:28:26.067Z,75.50
2023-02-09T01:33:27.674Z,75.40
2023-02-09T01:38:29.281Z,75.77
2023-02-09T01:43:48.425Z,75.71
2023-02-09T01:48:53.727Z,75.53
2023-02-09T01:53:55.755Z,75.29
2023-02-09T01:58:58.528Z,75.28
2023-02-09T02:03:59.975Z,75.43
2023-02-09T02:09:06.717Z,75.60
2023-02-09T02:14:28.196Z,76.26
2023-02-09T02:20:12.244Z,76.62
2023-02-09T02:25:42.773Z,75.98
2023-02-09T02:31:09.885Z,76.71
2023-02-09T02:36:20.492Z,76.23
2023-02-09T02:41:50.946Z,76.44
2023-02-09T02:46:57.456Z,76.45
2023-02-09T02:52:03.834Z,76.41
2023-02-09T02:57:33.607Z,77.01
2023-02-09T03:02:40.194Z,76.51
2023-02-09T03:07:41.796Z,76.54
2023-02-09T03:13:04.843Z,76.51
2023-02-09T03:18:18.099Z,76.23
2023-02-09T03:23:42.238Z,76.32
2023-02-09T03:28:46.448Z,76.97
2023-02-09T03:33:48.266Z,76.54
2023-02-09T03:38:49.665Z,77.01
2023-02-09T03:44:09.867Z,76.94
2023-02-09T03:49:14.798Z,76.50
2023-02-09T03:54:16.390Z,76.21
2023-02-09T03:59:18.120Z,77.01
2023-02-09T04:04:20.382Z,77.02
2023-02-09T04:09:22.265Z,76.61
2023-02-09T04:14:23.914Z,76.66
2023-02-09T04:19:25.403Z,76.69
2023-02-09T04:24:27.231Z,76.33
2023-02-09T04:29:28.709Z,77.62
2023-02-09T04:34:30.218Z,77.63
2023-02-09T04:39:31.613Z,77.46
2023-02-09T04:44:33.097Z,77.23
2023-02-09T04:49:34.533Z,77.53
2023-02-09T04:54:35.940Z,77.48
2023-02-09T04:59:39.217Z,77.33
2023-02-09T05:04:40.711Z,77.36
2023-02-09T05:09:42.148Z,76.70
2023-02-09T05:14:43.577Z,77.27
2023-02-09T05:19:44.990Z,77.34
2023-02-09T05:24:46.423Z,76.96
2023-02-09T05:29:47.843Z,77.64
2023-02-09T05:34:49.986Z,77.21
2023-02-09T05:39:51.512Z,77.16
2023-02-09T05:44:53.319Z,77.47
2023-02-09T05:49:54.738Z,76.93
2023-02-09T05:54:56.168Z,76.72
2023-02-09T05:59:57.613Z,77.16
2023-02-09T06:04:59.083Z,76.67
2023-02-09T06:10:00.570Z,76.51
2023-02-09T06:15:02.040Z,76.42
2023-02-09T06:20:03.803Z,75.40
2023-02-09T06:25:05.703Z,74.84
2023-02-09T06:30:07.610Z,73.93
2023-02-09T06:35:09.050Z,74.30
2023-02-09T06:40:10.911Z,74.48
2023-02-09T06:45:14.397Z,73.73
2023-02-09T06:50:16.549Z,73.89
2023-02-09T06:55:18.159Z,73.10
2023-02-09T07:00:20.055Z,72.53
2023-02-09T07:05:21.527Z,73.03
2023-02-09T07:10:23.022Z,72.78
2023-02-09T07:15:24.473Z,72.82
2023-02-09T07:20:25.982Z,72.76
2023-02-09T07:25:27.463Z,71.40
2023-02-09T07:30:29.064Z,71.16
2023-02-09T07:35:30.535Z,70.98
2023-02-09T07:40:32.054Z,69.60
2023-02-09T07:45:34.006Z,68.39
2023-02-09T07:50:35.444Z,66.52
2023-02-09T07:55:36.876Z,66.18
2023-02-09T08:00:38.295Z,65.06
2023-02-09T08:05:51.149Z,64.32
2023-02-09T08:10:55.525Z,63.72
2023-02-09T08:16:02.859Z,62.91
2023-02-09T08:21:07.762Z,63.46
2023-02-09T08:26:12.674Z,62.19
2023-02-09T08:31:16.920Z,62.10
2023-02-09T08:36:19.870Z,61.07
2023-02-09T08:41:21.533Z,60.87
2023-02-09T08:46:23.182Z,59.69
2023-02-09T08:51:24.704Z,58.83
2023-02-09T08:56:26.110Z,56.62
2023-02-09T09:01:27.703Z,56.94
2023-02-09T09:06:29.163Z,57.84
2023-02-09T09:11:30.749Z,55.25
2023-02-09T09:16:32.533Z,54.88
2023-02-09T09:21:34.065Z,54.29
2023-02-09T09:26:35.780Z,54.37
2023-02-09T09:31:38.060Z,53.26
2023-02-09T09:36:39.727Z,51.85
2023-02-09T09:41:41.223Z,50.62
2023-02-09T09:46:54.389Z,50.17
2023-02-09T09:52:10.932Z,51.41
2023-02-09T09:57:37.818Z,47.96
2023-02-09T10:02:39.667Z,48.32
2023-02-09T10:07:45.151Z,48.30
2023-02-09T10:12:53.923Z,47.76
2023-02-09T10:17:59.334Z,43.93
2023-02-09T10:23:00.785Z,45.12
2023-02-09T10:28:06.369Z,44.52
2023-02-09T10:33:14.740Z,43.46
2023-02-09T10:38:19.115Z,42.75
2023-02-09T10:43:27.963Z,44.10
2023-02-09T10:48:40.659Z,44.16
2023-02-09T10:54:09.804Z,43.55
2023-02-09T10:59:18.327Z,43.77
2023-02-09T11:04:23.033Z,42.86
2023-02-09T11:09:29.750Z,42.66
2023-02-09T11:14:31.717Z,41.51
2023-02-09T11:20:04.681Z,42.08
2023-02-09T11:25:44.014Z,42.36
2023-02-09T11:30:54.734Z,41.60
2023-02-09T11:36:01.976Z,42.77
2023-02-09T11:41:28.065Z,43.74
2023-02-09T11:46:31.988Z,43.63
2023-02-09T11:51:39.516Z,42.65
2023-02-09T11:56:44.615Z,42.26
2023-02-09T12:01:45.975Z,42.42
2023-02-09T12:07:11.900Z,43.81
2023-02-09T12:12:22.203Z,43.04
2023-02-09T12:17:42.316Z,41.94
2023-02-09T12:22:51.052Z,42.48
2023-02-09T12:28:18.506Z,42.79
2023-02-09T12:33:33.725Z,43.06
2023-02-09T12:38:53.545Z,42.01
2023-02-09T12:44:08.967Z,43.72
2023-02-09T12:49:17.779Z,43.79
2023-02-09T12:54:58.986Z,42.77
2023-02-09T13:00:00.384Z,43.88
2023-02-09T13:05:25.560Z,43.28
2023-02-09T13:10:36.455Z,44.24
2023-02-09T13:15:49.698Z,44.32
2023-02-09T13:21:01.970Z,44.64
2023-02-09T13:26:34.291Z,45.25
2023-02-09T13:31:44.462Z,45.08
2023-02-09T13:36:58.615Z,45.90
2023-02-09T13:42:00.215Z,46.26
2023-02-09T13:47:06.545Z,46.24
2023-02-09T13:52:22.192Z,46.81
2023-02-09T13:57:31.590Z,47.58
2023-02-09T14:02:35.255Z,47.61
2023-02-09T14:07:37.866Z,47.37
2023-02-09T14:13:14.179Z,48.14
2023-02-09T14:18:50.916Z,48.77
2023-02-09T14:23:58.142Z,49.72
2023-02-09T14:29:02.412Z,49.21
2023-02-09T14:34:03.875Z,49.21
2023-02-09T14:39:17.023Z,49.88
2023-02-09T14:44:21.455Z,50.94
2023-02-09T14:49:23.695Z,50.74
2023-02-09T14:54:32.198Z,51.50
2023-02-09T14:59:33.661Z,52.52
2023-02-09T15:04:35.551Z,52.49
2023-02-09T15:09:37.922Z,53.38
2023-02-09T15:14:45.519Z,54.00
2023-02-09T15:19:47.610Z,53.92
2023-02-09T15:24:52.746Z,53.71
2023-02-09T15:29:58.962Z,54.13
2023-02-09T15:35:01.754Z,54.82
2023-02-09T15:40:17.804Z,55.60
2023-02-09T15:45:42.202Z,56.53
2023-02-09T15:50:47.237Z,56.72
2023-02-09T15:55:48.982Z,56.29
2023-02-09T16:00:50.398Z,57.16
2023-02-09T16:05:58.807Z,57.37
2023-02-09T16:11:01.742Z,57.83
2023-02-09T16:16:16.399Z,58.48
2023-02-09T16:21:30.014Z,58.76
2023-02-09T16:26:33.443Z,59.24
2023-02-09T16:31:34.935Z,59.56
2023-02-09T16:36:36.944Z,59.71
2023-02-09T16:41:47.096Z,60.01
2023-02-09T16:46:51.910Z,59.25
2023-02-09T16:51:57.140Z,60.93
2023-02-09T16:56:58.576Z,60.09
2023-02-09T17:02:00.209Z,60.43
2023-02-09T17:07:01.720Z,60.65
2023-02-09T17:12:03.183Z,60.29
2023-02-09T17:17:04.664Z,60.64
2023-02-09T17:22:11.240Z,60.69
2023-02-09T17:27:12.702Z,60.62
2023-02-09T17:32:15.477Z,61.16
2023-02-09T17:37:16.997Z,61.59
2023-02-09T17:42:22.097Z,62.03
2023-02-09T17:47:24.159Z,61.79
2023-02-09T17:52:25.587Z,61.75
2023-02-09T17:57:27.587Z,61.80
2023-02-09T18:02:29.168Z,61.67
2023-02-09T18:07:30.620Z,61.20
2023-02-09T18:12:32.052Z,61.35
2023-02-09T18:17:33.625Z,61.49
2023-02-09T18:22:35.051Z,61.68
2023-02-09T18:27:36.478Z,62.13
2023-02-09T18:32:38.057Z,61.48
2023-02-09T18:37:39.557Z,61.29
2023-02-09T18:42:41.656Z,61.02
2023-02-09T18:47:43.640Z,60.87
2023-02-09T18:52:54.192Z,60.83
2023-02-09T18:57:57.603Z,60.91
2023-02-09T19:02:59.599Z,61.64
2023-02-09T19:08:01.247Z,61.89
2023-02-09T19:13:04.348Z,62.00
2023-02-09T19:18:05.845Z,61.78
2023-02-09T19:23:08.517Z,61.92
2023-02-09T19:28:11.256Z,61.20
2023-02-09T19:33:13.181Z,61.62
2023-02-09T19:38:14.639Z,61.63
2023-02-09T19:43:16.239Z,61.59
2023-02-09T19:48:17.679Z,61.51
2023-02-09T19:53:19.098Z,61.50
2023-02-09T19:58:21.757Z,61.72
2023-02-09T20:03:24.179Z,61.55
2023-02-09T20:08:25.707Z,61.71
2023-02-09T20:13:27.162Z,62.05
2023-02-09T20:18:28.631Z,62.74
2023-02-09T20:23:30.103Z,62.45
2023-02-09T20:28:31.800Z,62.83
2023-02-09T20:33:38.242Z,62.88
2023-02-09T20:38:39.716Z,62.56
2023-02-09T20:43:59.856Z,61.84
2023-02-09T20:49:01.273Z,60.99
2023-02-09T20:54:02.749Z,60.63
2023-02-09T20:59:05.991Z,60.57
2023-02-09T21:04:08.662Z,60.10
2023-02-09T21:09:12.898Z,59.43
2023-02-09T21:14:22.111Z,59.90
2023-02-09T21:19:34.290Z,59.56
2023-02-09T21:24:39.904Z,59.27
2023-02-09T21:29:41.335Z,59.26
2023-02-09T21:34:42.847Z,58.98
2023-02-09T21:39:44.322Z,59.85
2023-02-09T21:44:45.759Z,59.60
2023-02-09T21:49:48.494Z,59.01
2023-02-09T21:54:50.533Z,59.24
2023-02-09T21:59:52.311Z,58.94
2023-02-09T22:04:53.832Z,58.17
2023-02-09T22:09:55.360Z,58.48
2023-02-09T22:14:57.226Z,58.62
2023-02-09T22:19:58.717Z,58.58
2023-02-09T22:25:00.170Z,58.26
2023-02-09T22:30:01.645Z,57.79
2023-02-09T22:35:03.105Z,57.97
2023-02-09T22:40:05.168Z,57.41
2023-02-09T22:45:06.998Z,58.32
2023-02-09T22:50:08.800Z,58.09
2023-02-09T22:55:10.306Z,58.72
2023-02-09T23:00:15.090Z,58.79
2023-02-09T23:05:16.605Z,59.10
2023-02-09T23:10:18.463Z,58.78
2023-02-09T23:15:20.607Z,58.96
2023-02-09T23:20:22.030Z,59.04
2023-02-09T23:25:24.363Z,59.55
2023-02-09T23:30:25.823Z,59.99
2023-02-09T23:35:27.243Z,60.42
2023-02-09T23:40:28.738Z,60.67
2023-02-09T23:45:30.146Z,60.98
2023-02-09T23:50:31.645Z,61.17
2023-02-09T23:55:33.078Z,61.12
